< < Back
Terminal Aerodrome Forecast


Current Version              Previous Versions:   1  2  3  4  5  6  7  8  9  

Terminal Aerodrome Forecast

029
FTUS44 KOHX 261744
TAFCSV
TAF
KCSV 261744Z 2618/2718 19003KT P6SM VCTS BKN040CB BKN050
     FM270000 19003KT P6SM BKN200
     FM270600 00000KT 5SM BR SCT200
     FM271300 24004KT P6SM SCT040 BKN200 PROB30 2716/2717 P6SM TS
      BKN050CB=

Latest METAR

003
SAUS70 KWBC 262000
MTRCSV
METAR KCSV 261953Z AUTO 11007KT 080V140 10SM VCTS FEW044 25/22 A3018 RMK
AO2 LTG DSNT E-S RAE07 TSB36E51 SLP200 P0000 T02500222


USA.gov is the U.S. government's official web portal to all federal, state and local government web resources and services.